createdAt,value
2022-12-19T00:02:47.546Z,4.414715719063545
2022-12-19T00:16:18.870Z,3.488294314381271
2022-12-19T00:22:39.766Z,4.591973244147157
2022-12-19T00:29:00.941Z,5.096989966555184
2022-12-19T00:35:22.644Z,5.063545150501672
2022-12-19T00:45:46.832Z,4.568561872909699
2022-12-19T00:52:09.287Z,5.240802675585284
2022-12-19T00:58:30.009Z,5.063545150501672
2022-12-19T01:05:42.743Z,6.150501672240803
2022-12-19T01:12:07.492Z,6.311036789297659
2022-12-19T01:18:29.661Z,5.2675585284280935
2022-12-19T01:26:33.885Z,7.414715719063545
2022-12-19T01:44:18.440Z,5.3879598662207355
2022-12-19T01:50:39.594Z,5.107023411371237
2022-12-19T01:57:05.793Z,6.20066889632107
2022-12-19T02:03:27.823Z,5.585284280936455
2022-12-19T02:09:50.348Z,6.086956521739131
2022-12-19T02:16:18.795Z,6.260869565217392
2022-12-19T02:22:41.836Z,6.8996655518394645
2022-12-19T02:28:59.972Z,5.033444816053512
2022-12-19T02:35:20.721Z,5.749163879598663
2022-12-19T02:41:41.293Z,6.471571906354515
2022-12-19T02:48:04.525Z,5.802675585284281
2022-12-19T02:54:29.135Z,5.478260869565218
2022-12-19T03:00:48.912Z,6.695652173913044
2022-12-19T03:08:41.051Z,5.45819397993311
2022-12-19T03:15:02.867Z,6.197324414715719
2022-12-19T03:31:54.778Z,5.187290969899665
2022-12-19T03:38:16.444Z,6.237458193979933
2022-12-19T03:47:49.008Z,6.096989966555184
2022-12-19T04:01:26.084Z,5.40133779264214
2022-12-19T04:07:46.296Z,4.8193979933110365
2022-12-19T04:14:06.555Z,5.545150501672241
2022-12-19T04:24:03.969Z,5.59866220735786
2022-12-19T04:30:23.845Z,6.722408026755853
2022-12-19T04:36:45.836Z,5.217391304347826
2022-12-19T04:48:43.937Z,5.94314381270903
2022-12-19T04:55:04.034Z,4.668896321070235
2022-12-19T05:01:23.645Z,6.153846153846154
2022-12-19T05:07:45.075Z,5.448160535117057
2022-12-19T05:16:00.709Z,6.822742474916388
2022-12-19T05:27:38.298Z,4.849498327759197
2022-12-19T05:37:25.130Z,5.026755852842809
2022-12-19T05:44:22.458Z,3.8060200668896322
2022-12-19T05:50:43.327Z,6.7725752508361206
2022-12-19T05:57:27.065Z,4.936454849498328
2022-12-19T06:12:01.893Z,5.8193979933110365
2022-12-19T06:35:03.637Z,6.494983277591973
2022-12-19T06:41:23.615Z,5.036789297658863
2022-12-19T06:48:32.107Z,5.806020066889632
2022-12-19T07:02:23.198Z,5.478260869565218
2022-12-19T07:08:42.782Z,5.581939799331104
2022-12-19T07:15:02.999Z,6.444816053511706
2022-12-19T07:21:22.125Z,5.501672240802676
2022-12-19T07:27:40.500Z,5.454849498327759
2022-12-19T07:33:59.664Z,4.806020066889632
2022-12-19T07:40:19.390Z,4.39799331103679
2022-12-19T07:46:38.229Z,5.1237458193979935
2022-12-19T07:56:07.353Z,5.879598662207358
2022-12-19T08:07:19.194Z,4.989966555183947
2022-12-19T08:15:44.834Z,6.327759197324415
2022-12-19T08:22:03.784Z,5.909698996655519
2022-12-19T08:28:24.885Z,6.003344481605351
2022-12-19T08:37:43.334Z,5.51505016722408
2022-12-19T08:44:04.920Z,6.304347826086956
2022-12-19T08:50:26.291Z,6.508361204013378
2022-12-19T09:09:00.691Z,5.996655518394649
2022-12-19T09:15:21.865Z,6.120401337792642
2022-12-19T09:21:42.644Z,4.7558528428093645
2022-12-19T09:28:27.445Z,6.090301003344481
2022-12-19T09:34:54.086Z,5.357859531772576
2022-12-19T09:41:15.322Z,6.842809364548495
2022-12-19T09:53:41.491Z,5.270903010033445
2022-12-19T10:12:46.143Z,4.936454849498328
2022-12-19T10:27:59.227Z,4.357859531772576
2022-12-19T10:34:21.207Z,3.37123745819398
2022-12-19T10:40:42.293Z,2.1337792642140467
2022-12-19T10:47:04.494Z,2.448160535117057
2022-12-19T10:54:33.058Z,2.367892976588629
2022-12-19T11:00:54.660Z,2.3043478260869565
2022-12-19T11:07:16.163Z,2.739130434782609
2022-12-19T11:19:37.078Z,1.9130434782608696
2022-12-19T11:35:52.018Z,1.859531772575251
2022-12-19T11:42:13.424Z,1.899665551839465
2022-12-19T11:48:36.220Z,2.157190635451505
2022-12-19T11:54:59.077Z,2.3779264214046822
2022-12-19T12:01:22.556Z,1.882943143812709
2022-12-19T12:08:56.014Z,2.2876254180602005
2022-12-19T12:29:47.074Z,1.6956521739130435
2022-12-19T12:38:23.390Z,2.4247491638795986
2022-12-19T12:44:47.987Z,2.491638795986622
2022-12-19T12:51:10.318Z,2.2073578595317724
2022-12-19T12:57:33.107Z,2.408026755852843
2022-12-19T13:08:48.661Z,2.137123745819398
2022-12-19T13:17:41.054Z,2.8361204013377925
2022-12-19T13:24:04.064Z,2.220735785953177
2022-12-19T13:30:26.440Z,2.2274247491638794
2022-12-19T13:39:51.353Z,1.8093645484949832
2022-12-19T13:46:31.318Z,1.6555183946488294
2022-12-19T14:15:12.357Z,3.3779264214046822
2022-12-19T14:22:09.800Z,2.190635451505017
2022-12-19T14:28:36.570Z,2.0234113712374584
2022-12-19T14:36:08.557Z,2.3779264214046822
2022-12-19T14:43:57.551Z,2.1137123745819397
2022-12-19T14:54:29.349Z,2.1638795986622075
2022-12-19T15:05:56.797Z,2.769230769230769
2022-12-19T15:14:04.097Z,2.4448160535117056
2022-12-19T15:21:17.035Z,2.3745819397993313
2022-12-19T15:28:59.656Z,1.3478260869565217
2022-12-19T15:41:45.038Z,1.7959866220735785
2022-12-19T15:48:05.703Z,2.4180602006688963
2022-12-19T15:59:12.187Z,2.0501672240802677
2022-12-19T16:11:05.900Z,2.82943143812709
2022-12-19T16:17:47.241Z,1.2642140468227425
2022-12-19T16:30:00.105Z,2.060200668896321
2022-12-19T16:36:21.791Z,2.3244147157190636
2022-12-19T16:42:41.684Z,2.1638795986622075
2022-12-19T16:59:42.076Z,3.0735785953177257
2022-12-19T17:11:10.879Z,2.551839464882943
2022-12-19T17:18:26.606Z,2.6387959866220734
2022-12-19T17:24:51.380Z,2.3745819397993313
2022-12-19T17:31:14.510Z,1.785953177257525
2022-12-19T17:37:37.162Z,1.9933110367892977
2022-12-19T17:43:59.020Z,2.8561872909698995
2022-12-19T17:54:15.945Z,1.919732441471572
2022-12-19T18:03:10.948Z,2.096989966555184
2022-12-19T18:11:09.723Z,2.739130434782609
2022-12-19T18:17:30.356Z,1.7926421404682273
2022-12-19T18:23:49.399Z,2.4816053511705687
2022-12-19T18:30:08.484Z,1.6521739130434783
2022-12-19T18:40:15.890Z,2.076923076923077
2022-12-19T18:46:46.724Z,2.230769230769231
2022-12-19T18:53:12.022Z,2.1036789297658864
2022-12-19T19:05:47.166Z,2.62876254180602
2022-12-19T19:12:07.870Z,2.117056856187291
2022-12-19T19:18:28.426Z,1.7558528428093645
2022-12-19T19:24:50.108Z,1.6622073578595318
2022-12-19T19:31:12.318Z,2.0936454849498327
2022-12-19T19:40:17.100Z,1.8862876254180603
2022-12-19T19:50:10.025Z,2.2876254180602005
2022-12-19T20:00:36.252Z,2.080267558528428
2022-12-19T20:06:57.744Z,2.1638795986622075
2022-12-19T20:13:22.285Z,2.3779264214046822
2022-12-19T20:19:48.032Z,2.297658862876254
2022-12-19T20:26:11.203Z,2.7157190635451505
2022-12-19T20:32:35.979Z,2.096989966555184
2022-12-19T20:39:01.411Z,1.5418060200668897
2022-12-19T20:45:23.950Z,2.1471571906354514
2022-12-19T20:59:19.367Z,2.4347826086956523
2022-12-19T21:10:57.270Z,2.451505016722408
2022-12-19T21:17:18.305Z,1.625418060200669
2022-12-19T21:23:38.613Z,1.3110367892976589
2022-12-19T21:30:01.624Z,1.765886287625418
2022-12-19T21:36:21.594Z,1.3678929765886287
2022-12-19T21:42:59.695Z,1.879598662207358
2022-12-19T21:49:21.378Z,2.668896321070234
2022-12-19T21:58:19.564Z,1.5919732441471572
2022-12-19T22:04:48.249Z,1.3444816053511706
2022-12-19T22:11:21.119Z,2.8260869565217392
2022-12-19T22:17:48.677Z,1.3177257525083612
2022-12-19T22:24:11.832Z,2.160535117056856
2022-12-19T22:30:41.075Z,2.157190635451505
2022-12-19T22:37:06.894Z,1.725752508361204
2022-12-19T22:43:33.021Z,1.9665551839464883
2022-12-19T22:57:23.935Z,1.4648829431438126
2022-12-19T23:04:56.568Z,1.0301003344481605
2022-12-19T23:14:30.250Z,1.8227424749163879
2022-12-19T23:20:49.556Z,1.648829431438127
2022-12-19T23:29:42.790Z,1.0468227424749164
2022-12-19T23:36:02.922Z,1.117056856187291
2022-12-19T23:42:38.124Z,1.8762541806020068
2022-12-19T23:48:57.795Z,1.6622073578595318
2022-12-19T23:55:16.935Z,2.37123745819398
